sensor_id;sensor_type;location;lat;lon;timestamp;P1;durP1;ratioP1;P2;durP2;ratioP2
75012;SDS011;63567;49.956;20.130;2023-05-07T00:01:02;15.03;;;9.10;;
75012;SDS011;63567;49.956;20.130;2023-05-07T00:03:27;14.25;;;9.02;;
75012;SDS011;63567;49.956;20.130;2023-05-07T00:05:53;14.32;;;9.15;;
75012;SDS011;63567;49.956;20.130;2023-05-07T00:08:19;14.48;;;9.48;;
75012;SDS011;63567;49.956;20.130;2023-05-07T00:10:45;13.88;;;9.20;;
75012;SDS011;63567;49.956;20.130;2023-05-07T00:13:11;15.30;;;9.80;;
75012;SDS011;63567;49.956;20.130;2023-05-07T00:15:37;13.30;;;8.77;;
75012;SDS011;63567;49.956;20.130;2023-05-07T00:18:02;14.68;;;9.50;;
75012;SDS011;63567;49.956;20.130;2023-05-07T00:20:27;16.15;;;10.98;;
75012;SDS011;63567;49.956;20.130;2023-05-07T00:22:53;21.17;;;9.98;;
75012;SDS011;63567;49.956;20.130;2023-05-07T00:25:18;14.20;;;9.17;;
75012;SDS011;63567;49.956;20.130;2023-05-07T00:27:44;16.58;;;10.27;;
75012;SDS011;63567;49.956;20.130;2023-05-07T00:30:10;15.30;;;9.48;;
75012;SDS011;63567;49.956;20.130;2023-05-07T00:32:36;15.25;;;9.68;;
75012;SDS011;63567;49.956;20.130;2023-05-07T00:35:02;16.40;;;10.73;;
75012;SDS011;63567;49.956;20.130;2023-05-07T00:37:27;19.38;;;11.35;;
75012;SDS011;63567;49.956;20.130;2023-05-07T00:39:53;23.60;;;12.77;;
75012;SDS011;63567;49.956;20.130;2023-05-07T00:42:18;25.07;;;13.87;;
75012;SDS011;63567;49.956;20.130;2023-05-07T00:44:43;22.77;;;13.97;;
75012;SDS011;63567;49.956;20.130;2023-05-07T00:47:09;26.03;;;14.43;;
75012;SDS011;63567;49.956;20.130;2023-05-07T00:49:37;24.50;;;14.27;;
75012;SDS011;63567;49.956;20.130;2023-05-07T00:52:11;27.65;;;15.13;;
75012;SDS011;63567;49.956;20.130;2023-05-07T00:54:40;27.95;;;15.30;;
75012;SDS011;63567;49.956;20.130;2023-05-07T00:57:06;27.15;;;15.88;;
75012;SDS011;63567;49.956;20.130;2023-05-07T00:59:31;28.25;;;16.25;;
75012;SDS011;63567;49.956;20.130;2023-05-07T01:01:58;27.23;;;15.02;;
75012;SDS011;63567;49.956;20.130;2023-05-07T01:04:23;25.58;;;13.88;;
75012;SDS011;63567;49.956;20.130;2023-05-07T01:06:49;27.33;;;14.33;;
75012;SDS011;63567;49.956;20.130;2023-05-07T01:09:15;26.23;;;14.55;;
75012;SDS011;63567;49.956;20.130;2023-05-07T01:11:41;25.50;;;15.02;;
75012;SDS011;63567;49.956;20.130;2023-05-07T01:14:07;23.40;;;13.40;;
75012;SDS011;63567;49.956;20.130;2023-05-07T01:16:36;25.88;;;14.15;;
75012;SDS011;63567;49.956;20.130;2023-05-07T01:19:01;24.73;;;13.95;;
75012;SDS011;63567;49.956;20.130;2023-05-07T01:21:27;24.85;;;15.07;;
75012;SDS011;63567;49.956;20.130;2023-05-07T01:23:58;25.25;;;14.25;;
75012;SDS011;63567;49.956;20.130;2023-05-07T01:26:23;23.98;;;14.10;;
75012;SDS011;63567;49.956;20.130;2023-05-07T01:28:49;22.93;;;12.53;;
75012;SDS011;63567;49.956;20.130;2023-05-07T01:31:15;23.38;;;13.27;;
75012;SDS011;63567;49.956;20.130;2023-05-07T01:33:42;24.27;;;13.20;;
75012;SDS011;63567;49.956;20.130;2023-05-07T01:36:09;23.17;;;13.30;;
75012;SDS011;63567;49.956;20.130;2023-05-07T01:38:37;27.85;;;14.38;;
75012;SDS011;63567;49.956;20.130;2023-05-07T01:41:03;29.15;;;15.48;;
75012;SDS011;63567;49.956;20.130;2023-05-07T01:43:29;27.27;;;15.55;;
75012;SDS011;63567;49.956;20.130;2023-05-07T01:45:55;25.73;;;14.57;;
75012;SDS011;63567;49.956;20.130;2023-05-07T01:48:22;25.88;;;14.02;;
75012;SDS011;63567;49.956;20.130;2023-05-07T01:50:49;28.33;;;15.55;;
75012;SDS011;63567;49.956;20.130;2023-05-07T01:53:16;29.00;;;15.63;;
75012;SDS011;63567;49.956;20.130;2023-05-07T01:55:41;24.90;;;14.00;;
75012;SDS011;63567;49.956;20.130;2023-05-07T01:58:07;26.20;;;14.00;;
75012;SDS011;63567;49.956;20.130;2023-05-07T02:00:32;22.33;;;12.60;;
75012;SDS011;63567;49.956;20.130;2023-05-07T02:02:57;19.35;;;11.20;;
75012;SDS011;63567;49.956;20.130;2023-05-07T02:05:23;18.35;;;10.48;;
75012;SDS011;63567;49.956;20.130;2023-05-07T02:07:48;16.27;;;9.18;;
75012;SDS011;63567;49.956;20.130;2023-05-07T02:10:14;13.75;;;8.32;;
75012;SDS011;63567;49.956;20.130;2023-05-07T02:12:39;13.47;;;9.07;;
75012;SDS011;63567;49.956;20.130;2023-05-07T02:15:05;11.77;;;8.23;;
75012;SDS011;63567;49.956;20.130;2023-05-07T02:17:30;13.85;;;9.77;;
75012;SDS011;63567;49.956;20.130;2023-05-07T02:19:57;15.57;;;9.10;;
75012;SDS011;63567;49.956;20.130;2023-05-07T02:22:24;14.55;;;9.50;;
75012;SDS011;63567;49.956;20.130;2023-05-07T02:24:50;16.20;;;9.30;;
75012;SDS011;63567;49.956;20.130;2023-05-07T02:27:15;15.67;;;9.67;;
75012;SDS011;63567;49.956;20.130;2023-05-07T02:29:40;15.23;;;9.17;;
75012;SDS011;63567;49.956;20.130;2023-05-07T02:32:06;15.87;;;9.27;;
75012;SDS011;63567;49.956;20.130;2023-05-07T02:34:31;15.87;;;9.00;;
75012;SDS011;63567;49.956;20.130;2023-05-07T02:36:56;13.47;;;9.20;;
75012;SDS011;63567;49.956;20.130;2023-05-07T02:39:22;12.70;;;8.80;;
75012;SDS011;63567;49.956;20.130;2023-05-07T02:41:47;14.35;;;8.43;;
75012;SDS011;63567;49.956;20.130;2023-05-07T02:44:12;14.27;;;8.40;;
75012;SDS011;63567;49.956;20.130;2023-05-07T02:46:38;12.77;;;8.03;;
75012;SDS011;63567;49.956;20.130;2023-05-07T02:49:03;15.07;;;9.20;;
75012;SDS011;63567;49.956;20.130;2023-05-07T02:51:29;15.73;;;9.07;;
75012;SDS011;63567;49.956;20.130;2023-05-07T02:53:55;15.57;;;9.88;;
75012;SDS011;63567;49.956;20.130;2023-05-07T02:56:20;16.07;;;9.10;;
75012;SDS011;63567;49.956;20.130;2023-05-07T02:58:46;13.67;;;8.80;;
75012;SDS011;63567;49.956;20.130;2023-05-07T03:01:11;13.20;;;7.40;;
75012;SDS011;63567;49.956;20.130;2023-05-07T03:03:38;11.70;;;7.93;;
75012;SDS011;63567;49.956;20.130;2023-05-07T03:06:04;11.23;;;6.65;;
75012;SDS011;63567;49.956;20.130;2023-05-07T03:08:30;11.45;;;6.70;;
75012;SDS011;63567;49.956;20.130;2023-05-07T03:10:55;9.57;;;5.77;;
75012;SDS011;63567;49.956;20.130;2023-05-07T03:13:20;10.70;;;6.38;;
75012;SDS011;63567;49.956;20.130;2023-05-07T03:15:46;11.45;;;6.82;;
75012;SDS011;63567;49.956;20.130;2023-05-07T03:18:11;11.37;;;6.60;;
75012;SDS011;63567;49.956;20.130;2023-05-07T03:20:36;10.90;;;6.93;;
75012;SDS011;63567;49.956;20.130;2023-05-07T03:23:02;10.13;;;6.63;;
75012;SDS011;63567;49.956;20.130;2023-05-07T03:25:28;10.18;;;6.57;;
75012;SDS011;63567;49.956;20.130;2023-05-07T03:27:55;9.60;;;6.18;;
75012;SDS011;63567;49.956;20.130;2023-05-07T03:30:20;9.23;;;5.75;;
75012;SDS011;63567;49.956;20.130;2023-05-07T03:32:45;9.77;;;6.17;;
75012;SDS011;63567;49.956;20.130;2023-05-07T03:35:11;10.20;;;6.07;;
75012;SDS011;63567;49.956;20.130;2023-05-07T03:37:37;8.47;;;5.20;;
75012;SDS011;63567;49.956;20.130;2023-05-07T03:40:03;8.52;;;5.50;;
75012;SDS011;63567;49.956;20.130;2023-05-07T03:42:28;9.88;;;6.03;;
75012;SDS011;63567;49.956;20.130;2023-05-07T03:44:54;9.63;;;5.47;;
75012;SDS011;63567;49.956;20.130;2023-05-07T03:47:19;10.48;;;5.57;;
75012;SDS011;63567;49.956;20.130;2023-05-07T03:49:45;9.23;;;5.53;;
75012;SDS011;63567;49.956;20.130;2023-05-07T03:52:10;7.40;;;5.37;;
75012;SDS011;63567;49.956;20.130;2023-05-07T03:54:36;9.97;;;6.47;;
75012;SDS011;63567;49.956;20.130;2023-05-07T03:57:01;10.65;;;5.72;;
75012;SDS011;63567;49.956;20.130;2023-05-07T03:59:26;9.70;;;5.90;;
75012;SDS011;63567;49.956;20.130;2023-05-07T04:01:52;7.70;;;5.37;;
75012;SDS011;63567;49.956;20.130;2023-05-07T04:04:17;5.82;;;4.68;;
75012;SDS011;63567;49.956;20.130;2023-05-07T04:06:42;8.17;;;4.97;;
75012;SDS011;63567;49.956;20.130;2023-05-07T04:09:08;7.97;;;4.20;;
75012;SDS011;63567;49.956;20.130;2023-05-07T04:11:34;6.57;;;4.33;;
75012;SDS011;63567;49.956;20.130;2023-05-07T04:14:00;5.93;;;3.95;;
75012;SDS011;63567;49.956;20.130;2023-05-07T04:16:25;5.93;;;4.10;;
75012;SDS011;63567;49.956;20.130;2023-05-07T04:18:51;4.67;;;3.43;;
75012;SDS011;63567;49.956;20.130;2023-05-07T04:21:16;5.70;;;4.17;;
75012;SDS011;63567;49.956;20.130;2023-05-07T04:23:43;6.90;;;3.55;;
75012;SDS011;63567;49.956;20.130;2023-05-07T04:26:08;5.68;;;3.60;;
75012;SDS011;63567;49.956;20.130;2023-05-07T04:28:34;5.25;;;3.40;;
75012;SDS011;63567;49.956;20.130;2023-05-07T04:31:00;6.40;;;3.65;;
75012;SDS011;63567;49.956;20.130;2023-05-07T04:33:25;4.47;;;3.38;;
75012;SDS011;63567;49.956;20.130;2023-05-07T04:35:51;4.57;;;3.00;;
75012;SDS011;63567;49.956;20.130;2023-05-07T04:38:16;5.17;;;3.20;;
75012;SDS011;63567;49.956;20.130;2023-05-07T04:40:43;4.85;;;3.03;;
75012;SDS011;63567;49.956;20.130;2023-05-07T04:43:09;4.45;;;2.88;;
75012;SDS011;63567;49.956;20.130;2023-05-07T04:45:35;4.20;;;2.97;;
75012;SDS011;63567;49.956;20.130;2023-05-07T04:48:01;3.55;;;2.40;;
75012;SDS011;63567;49.956;20.130;2023-05-07T04:50:26;4.17;;;2.83;;
75012;SDS011;63567;49.956;20.130;2023-05-07T04:52:51;4.25;;;2.65;;
75012;SDS011;63567;49.956;20.130;2023-05-07T04:55:17;4.18;;;2.22;;
75012;SDS011;63567;49.956;20.130;2023-05-07T04:57:42;4.25;;;2.92;;
75012;SDS011;63567;49.956;20.130;2023-05-07T05:00:08;4.23;;;2.80;;
75012;SDS011;63567;49.956;20.130;2023-05-07T05:02:34;3.40;;;2.75;;
75012;SDS011;63567;49.956;20.130;2023-05-07T05:05:00;3.33;;;2.50;;
75012;SDS011;63567;49.956;20.130;2023-05-07T05:07:26;4.28;;;2.78;;
75012;SDS011;63567;49.956;20.130;2023-05-07T05:09:52;3.97;;;2.45;;
75012;SDS011;63567;49.956;20.130;2023-05-07T05:12:17;4.17;;;2.50;;
75012;SDS011;63567;49.956;20.130;2023-05-07T05:14:43;5.33;;;3.00;;
75012;SDS011;63567;49.956;20.130;2023-05-07T05:17:08;3.87;;;2.80;;
75012;SDS011;63567;49.956;20.130;2023-05-07T05:19:33;4.83;;;2.80;;
75012;SDS011;63567;49.956;20.130;2023-05-07T05:21:58;5.00;;;2.90;;
75012;SDS011;63567;49.956;20.130;2023-05-07T05:24:26;3.15;;;2.15;;
75012;SDS011;63567;49.956;20.130;2023-05-07T05:26:52;4.47;;;3.00;;
75012;SDS011;63567;49.956;20.130;2023-05-07T05:29:18;4.25;;;2.90;;
75012;SDS011;63567;49.956;20.130;2023-05-07T05:31:43;3.90;;;2.58;;
75012;SDS011;63567;49.956;20.130;2023-05-07T05:34:09;4.17;;;2.50;;
75012;SDS011;63567;49.956;20.130;2023-05-07T05:36:34;4.25;;;2.58;;
75012;SDS011;63567;49.956;20.130;2023-05-07T05:39:00;4.03;;;2.80;;
75012;SDS011;63567;49.956;20.130;2023-05-07T05:41:25;4.13;;;2.87;;
75012;SDS011;63567;49.956;20.130;2023-05-07T05:43:50;4.00;;;3.03;;
75012;SDS011;63567;49.956;20.130;2023-05-07T05:46:15;3.27;;;2.37;;
75012;SDS011;63567;49.956;20.130;2023-05-07T05:48:41;3.47;;;2.50;;
75012;SDS011;63567;49.956;20.130;2023-05-07T05:51:06;3.50;;;2.53;;
75012;SDS011;63567;49.956;20.130;2023-05-07T05:53:32;3.80;;;2.77;;
75012;SDS011;63567;49.956;20.130;2023-05-07T05:55:57;3.37;;;2.37;;
75012;SDS011;63567;49.956;20.130;2023-05-07T05:58:22;3.60;;;2.53;;
75012;SDS011;63567;49.956;20.130;2023-05-07T06:00:48;3.10;;;2.55;;
75012;SDS011;63567;49.956;20.130;2023-05-07T06:03:13;4.05;;;2.92;;
75012;SDS011;63567;49.956;20.130;2023-05-07T06:05:39;6.17;;;3.03;;
75012;SDS011;63567;49.956;20.130;2023-05-07T06:08:04;4.33;;;2.80;;
75012;SDS011;63567;49.956;20.130;2023-05-07T06:10:29;3.60;;;2.60;;
75012;SDS011;63567;49.956;20.130;2023-05-07T06:12:55;3.78;;;3.00;;
75012;SDS011;63567;49.956;20.130;2023-05-07T06:15:20;3.60;;;2.22;;
75012;SDS011;63567;49.956;20.130;2023-05-07T06:17:46;4.27;;;2.27;;
75012;SDS011;63567;49.956;20.130;2023-05-07T06:20:11;3.67;;;2.67;;
75012;SDS011;63567;49.956;20.130;2023-05-07T06:22:36;2.50;;;1.80;;
75012;SDS011;63567;49.956;20.130;2023-05-07T06:25:02;3.13;;;1.60;;
75012;SDS011;63567;49.956;20.130;2023-05-07T06:27:27;2.35;;;1.50;;
75012;SDS011;63567;49.956;20.130;2023-05-07T06:29:53;2.72;;;1.55;;
75012;SDS011;63567;49.956;20.130;2023-05-07T06:32:18;2.45;;;1.40;;
75012;SDS011;63567;49.956;20.130;2023-05-07T06:34:43;2.30;;;1.40;;
75012;SDS011;63567;49.956;20.130;2023-05-07T06:37:09;2.70;;;1.80;;
75012;SDS011;63567;49.956;20.130;2023-05-07T06:39:34;2.17;;;1.40;;
75012;SDS011;63567;49.956;20.130;2023-05-07T06:42:00;2.20;;;1.60;;
75012;SDS011;63567;49.956;20.130;2023-05-07T06:44:27;2.58;;;1.50;;
75012;SDS011;63567;49.956;20.130;2023-05-07T06:46:52;2.67;;;1.40;;
75012;SDS011;63567;49.956;20.130;2023-05-07T06:49:18;2.90;;;1.55;;
75012;SDS011;63567;49.956;20.130;2023-05-07T06:51:43;2.45;;;1.60;;
75012;SDS011;63567;49.956;20.130;2023-05-07T06:54:08;2.27;;;1.57;;
75012;SDS011;63567;49.956;20.130;2023-05-07T06:56:34;2.50;;;1.50;;
75012;SDS011;63567;49.956;20.130;2023-05-07T06:59:00;3.28;;;1.92;;
75012;SDS011;63567;49.956;20.130;2023-05-07T07:01:26;2.58;;;1.83;;
75012;SDS011;63567;49.956;20.130;2023-05-07T07:03:51;3.10;;;2.10;;
75012;SDS011;63567;49.956;20.130;2023-05-07T07:06:16;3.23;;;2.20;;
75012;SDS011;63567;49.956;20.130;2023-05-07T07:08:45;2.72;;;2.05;;
75012;SDS011;63567;49.956;20.130;2023-05-07T07:11:10;3.15;;;1.90;;
75012;SDS011;63567;49.956;20.130;2023-05-07T07:13:36;3.10;;;2.20;;
75012;SDS011;63567;49.956;20.130;2023-05-07T07:16:01;2.75;;;1.85;;
75012;SDS011;63567;49.956;20.130;2023-05-07T07:18:27;2.75;;;1.65;;
75012;SDS011;63567;49.956;20.130;2023-05-07T07:20:53;3.03;;;1.98;;
75012;SDS011;63567;49.956;20.130;2023-05-07T07:23:18;2.75;;;2.05;;
75012;SDS011;63567;49.956;20.130;2023-05-07T07:25:44;3.28;;;2.13;;
75012;SDS011;63567;49.956;20.130;2023-05-07T07:28:09;3.55;;;2.00;;
75012;SDS011;63567;49.956;20.130;2023-05-07T07:30:36;3.25;;;2.33;;
75012;SDS011;63567;49.956;20.130;2023-05-07T07:33:01;3.47;;;2.38;;
75012;SDS011;63567;49.956;20.130;2023-05-07T07:35:30;3.00;;;1.98;;
75012;SDS011;63567;49.956;20.130;2023-05-07T07:37:58;3.30;;;2.25;;
75012;SDS011;63567;49.956;20.130;2023-05-07T07:40:24;3.13;;;2.15;;
75012;SDS011;63567;49.956;20.130;2023-05-07T07:42:49;3.22;;;2.20;;
75012;SDS011;63567;49.956;20.130;2023-05-07T07:45:15;3.63;;;2.25;;
75012;SDS011;63567;49.956;20.130;2023-05-07T07:47:41;3.70;;;2.30;;
75012;SDS011;63567;49.956;20.130;2023-05-07T07:50:06;3.20;;;2.13;;
75012;SDS011;63567;49.956;20.130;2023-05-07T07:52:32;3.38;;;2.05;;
75012;SDS011;63567;49.956;20.130;2023-05-07T07:54:58;3.97;;;2.70;;
75012;SDS011;63567;49.956;20.130;2023-05-07T07:57:23;3.33;;;2.20;;
75012;SDS011;63567;49.956;20.130;2023-05-07T07:59:49;4.30;;;2.42;;
75012;SDS011;63567;49.956;20.130;2023-05-07T08:02:15;4.30;;;2.65;;
75012;SDS011;63567;49.956;20.130;2023-05-07T08:04:40;4.78;;;2.15;;
75012;SDS011;63567;49.956;20.130;2023-05-07T08:07:08;3.38;;;2.05;;
75012;SDS011;63567;49.956;20.130;2023-05-07T08:09:33;4.45;;;2.30;;
75012;SDS011;63567;49.956;20.130;2023-05-07T08:11:58;4.30;;;2.20;;
75012;SDS011;63567;49.956;20.130;2023-05-07T08:14:24;2.50;;;1.75;;
75012;SDS011;63567;49.956;20.130;2023-05-07T08:16:49;4.37;;;2.27;;
75012;SDS011;63567;49.956;20.130;2023-05-07T08:19:15;3.40;;;2.13;;
75012;SDS011;63567;49.956;20.130;2023-05-07T08:21:40;3.37;;;1.97;;
75012;SDS011;63567;49.956;20.130;2023-05-07T08:24:05;3.23;;;1.90;;
75012;SDS011;63567;49.956;20.130;2023-05-07T08:26:31;3.60;;;2.30;;
75012;SDS011;63567;49.956;20.130;2023-05-07T08:28:56;3.40;;;2.10;;
75012;SDS011;63567;49.956;20.130;2023-05-07T08:31:22;3.00;;;2.27;;
75012;SDS011;63567;49.956;20.130;2023-05-07T08:33:47;3.80;;;2.00;;
75012;SDS011;63567;49.956;20.130;2023-05-07T08:36:12;4.05;;;2.30;;
75012;SDS011;63567;49.956;20.130;2023-05-07T08:38:38;3.73;;;2.33;;
75012;SDS011;63567;49.956;20.130;2023-05-07T08:41:05;3.30;;;2.15;;
75012;SDS011;63567;49.956;20.130;2023-05-07T08:43:32;3.55;;;2.67;;
75012;SDS011;63567;49.956;20.130;2023-05-07T08:46:00;3.70;;;2.63;;
75012;SDS011;63567;49.956;20.130;2023-05-07T08:48:27;3.00;;;2.15;;
75012;SDS011;63567;49.956;20.130;2023-05-07T08:50:55;3.97;;;2.20;;
75012;SDS011;63567;49.956;20.130;2023-05-07T08:53:20;4.43;;;2.60;;
75012;SDS011;63567;49.956;20.130;2023-05-07T08:55:46;4.25;;;2.42;;
75012;SDS011;63567;49.956;20.130;2023-05-07T08:58:12;3.65;;;2.33;;
75012;SDS011;63567;49.956;20.130;2023-05-07T09:00:38;3.30;;;2.20;;
75012;SDS011;63567;49.956;20.130;2023-05-07T09:03:05;3.95;;;2.50;;
75012;SDS011;63567;49.956;20.130;2023-05-07T09:05:30;3.60;;;2.58;;
75012;SDS011;63567;49.956;20.130;2023-05-07T09:07:58;5.25;;;2.67;;
75012;SDS011;63567;49.956;20.130;2023-05-07T09:10:24;3.33;;;2.40;;
75012;SDS011;63567;49.956;20.130;2023-05-07T09:12:51;3.88;;;2.72;;
75012;SDS011;63567;49.956;20.130;2023-05-07T09:15:16;5.03;;;2.90;;
75012;SDS011;63567;49.956;20.130;2023-05-07T09:17:42;3.88;;;2.60;;
75012;SDS011;63567;49.956;20.130;2023-05-07T09:20:08;4.07;;;2.75;;
75012;SDS011;63567;49.956;20.130;2023-05-07T09:22:37;4.03;;;2.65;;
75012;SDS011;63567;49.956;20.130;2023-05-07T09:25:03;4.47;;;2.70;;
75012;SDS011;63567;49.956;20.130;2023-05-07T09:27:31;3.92;;;2.80;;
75012;SDS011;63567;49.956;20.130;2023-05-07T09:29:56;3.93;;;2.87;;
75012;SDS011;63567;49.956;20.130;2023-05-07T09:32:21;3.47;;;2.60;;
75012;SDS011;63567;49.956;20.130;2023-05-07T09:34:47;3.60;;;2.50;;
75012;SDS011;63567;49.956;20.130;2023-05-07T09:37:12;4.03;;;2.83;;
75012;SDS011;63567;49.956;20.130;2023-05-07T09:39:45;4.78;;;2.55;;
75012;SDS011;63567;49.956;20.130;2023-05-07T09:42:12;5.05;;;3.50;;
75012;SDS011;63567;49.956;20.130;2023-05-07T09:44:40;4.40;;;2.88;;
75012;SDS011;63567;49.956;20.130;2023-05-07T09:47:06;3.22;;;2.60;;
75012;SDS011;63567;49.956;20.130;2023-05-07T09:49:36;4.38;;;3.08;;
75012;SDS011;63567;49.956;20.130;2023-05-07T09:54:28;3.75;;;2.92;;
75012;SDS011;63567;49.956;20.130;2023-05-07T09:56:54;4.82;;;3.10;;
75012;SDS011;63567;49.956;20.130;2023-05-07T09:59:20;5.53;;;3.80;;
75012;SDS011;63567;49.956;20.130;2023-05-07T10:01:47;4.68;;;3.30;;
75012;SDS011;63567;49.956;20.130;2023-05-07T10:04:13;4.65;;;2.92;;
75012;SDS011;63567;49.956;20.130;2023-05-07T10:06:39;4.90;;;3.25;;
75012;SDS011;63567;49.956;20.130;2023-05-07T10:09:06;3.97;;;3.05;;
75012;SDS011;63567;49.956;20.130;2023-05-07T10:11:32;5.00;;;3.30;;
75012;SDS011;63567;49.956;20.130;2023-05-07T10:13:59;5.57;;;3.70;;
75012;SDS011;63567;49.956;20.130;2023-05-07T10:16:27;5.13;;;3.58;;
75012;SDS011;63567;49.956;20.130;2023-05-07T10:18:54;4.63;;;3.50;;
75012;SDS011;63567;49.956;20.130;2023-05-07T10:21:20;5.68;;;3.25;;
75012;SDS011;63567;49.956;20.130;2023-05-07T10:23:54;4.85;;;3.10;;
75012;SDS011;63567;49.956;20.130;2023-05-07T10:26:35;5.10;;;3.35;;
75012;SDS011;63567;49.956;20.130;2023-05-07T10:29:07;4.72;;;3.42;;
75012;SDS011;63567;49.956;20.130;2023-05-07T10:34:24;5.32;;;3.60;;
75012;SDS011;63567;49.956;20.130;2023-05-07T10:36:53;5.72;;;3.60;;
75012;SDS011;63567;49.956;20.130;2023-05-07T10:39:20;7.97;;;4.95;;
75012;SDS011;63567;49.956;20.130;2023-05-07T10:41:48;10.98;;;5.85;;
75012;SDS011;63567;49.956;20.130;2023-05-07T10:44:26;18.60;;;9.40;;
75012;SDS011;63567;49.956;20.130;2023-05-07T10:47:04;16.52;;;9.63;;
75012;SDS011;63567;49.956;20.130;2023-05-07T10:50:19;12.48;;;7.30;;
75012;SDS011;63567;49.956;20.130;2023-05-07T10:52:21;10.32;;;7.10;;
75012;SDS011;63567;49.956;20.130;2023-05-07T10:54:48;9.77;;;6.45;;
75012;SDS011;63567;49.956;20.130;2023-05-07T10:57:46;17.08;;;9.98;;
75012;SDS011;63567;49.956;20.130;2023-05-07T11:05:35;10.93;;;7.18;;
75012;SDS011;63567;49.956;20.130;2023-05-07T11:08:02;8.95;;;5.75;;
75012;SDS011;63567;49.956;20.130;2023-05-07T11:13:42;8.30;;;5.78;;
75012;SDS011;63567;49.956;20.130;2023-05-07T11:16:18;9.93;;;6.00;;
75012;SDS011;63567;49.956;20.130;2023-05-07T11:18:46;9.63;;;6.60;;
75012;SDS011;63567;49.956;20.130;2023-05-07T11:21:14;9.63;;;5.35;;
75012;SDS011;63567;49.956;20.130;2023-05-07T11:23:56;7.65;;;6.03;;
75012;SDS011;63567;49.956;20.130;2023-05-07T11:26:22;7.75;;;5.60;;
75012;SDS011;63567;49.956;20.130;2023-05-07T11:28:48;6.40;;;5.05;;
75012;SDS011;63567;49.956;20.130;2023-05-07T11:31:14;7.05;;;5.15;;
75012;SDS011;63567;49.956;20.130;2023-05-07T11:33:45;8.15;;;5.43;;
75012;SDS011;63567;49.956;20.130;2023-05-07T11:36:10;8.02;;;5.75;;
75012;SDS011;63567;49.956;20.130;2023-05-07T11:38:37;6.45;;;4.90;;
75012;SDS011;63567;49.956;20.130;2023-05-07T11:41:03;5.57;;;4.10;;
75012;SDS011;63567;49.956;20.130;2023-05-07T11:43:30;6.70;;;4.38;;
75012;SDS011;63567;49.956;20.130;2023-05-07T11:46:04;6.03;;;4.53;;
75012;SDS011;63567;49.956;20.130;2023-05-07T11:48:31;7.43;;;4.30;;
75012;SDS011;63567;49.956;20.130;2023-05-07T11:51:04;5.93;;;4.05;;
75012;SDS011;63567;49.956;20.130;2023-05-07T11:53:40;5.68;;;4.20;;
75012;SDS011;63567;49.956;20.130;2023-05-07T11:56:14;5.15;;;4.30;;
75012;SDS011;63567;49.956;20.130;2023-05-07T11:58:41;5.82;;;3.88;;
75012;SDS011;63567;49.956;20.130;2023-05-07T12:01:08;5.93;;;4.00;;
75012;SDS011;63567;49.956;20.130;2023-05-07T12:03:35;5.80;;;4.05;;
75012;SDS011;63567;49.956;20.130;2023-05-07T12:06:07;4.25;;;3.50;;
75012;SDS011;63567;49.956;20.130;2023-05-07T12:08:33;5.90;;;4.50;;
75012;SDS011;63567;49.956;20.130;2023-05-07T12:11:01;5.65;;;4.03;;
75012;SDS011;63567;49.956;20.130;2023-05-07T12:13:27;6.43;;;3.83;;
75012;SDS011;63567;49.956;20.130;2023-05-07T12:15:53;5.23;;;4.13;;
75012;SDS011;63567;49.956;20.130;2023-05-07T12:18:20;5.45;;;3.72;;
75012;SDS011;63567;49.956;20.130;2023-05-07T12:20:46;5.13;;;3.80;;
75012;SDS011;63567;49.956;20.130;2023-05-07T12:23:12;4.90;;;3.38;;
75012;SDS011;63567;49.956;20.130;2023-05-07T12:25:38;5.63;;;3.83;;
75012;SDS011;63567;49.956;20.130;2023-05-07T12:28:05;5.53;;;3.75;;
75012;SDS011;63567;49.956;20.130;2023-05-07T12:30:40;4.45;;;3.45;;
75012;SDS011;63567;49.956;20.130;2023-05-07T12:33:05;4.53;;;3.13;;
75012;SDS011;63567;49.956;20.130;2023-05-07T12:35:31;4.53;;;3.30;;
75012;SDS011;63567;49.956;20.130;2023-05-07T12:38:00;4.18;;;3.00;;
75012;SDS011;63567;49.956;20.130;2023-05-07T12:40:36;4.75;;;3.80;;
75012;SDS011;63567;49.956;20.130;2023-05-07T12:43:02;5.32;;;3.20;;
75012;SDS011;63567;49.956;20.130;2023-05-07T12:45:28;4.90;;;3.20;;
75012;SDS011;63567;49.956;20.130;2023-05-07T12:47:53;4.60;;;3.35;;
75012;SDS011;63567;49.956;20.130;2023-05-07T12:50:18;3.77;;;3.20;;
75012;SDS011;63567;49.956;20.130;2023-05-07T12:52:46;4.07;;;3.15;;
75012;SDS011;63567;49.956;20.130;2023-05-07T12:55:13;4.85;;;3.13;;
75012;SDS011;63567;49.956;20.130;2023-05-07T12:57:41;4.28;;;3.10;;
75012;SDS011;63567;49.956;20.130;2023-05-07T13:00:08;5.32;;;3.00;;
75012;SDS011;63567;49.956;20.130;2023-05-07T13:02:37;5.15;;;3.58;;
75012;SDS011;63567;49.956;20.130;2023-05-07T13:05:04;4.80;;;3.33;;
75012;SDS011;63567;49.956;20.130;2023-05-07T13:07:29;5.50;;;3.42;;
75012;SDS011;63567;49.956;20.130;2023-05-07T13:09:55;5.60;;;3.83;;
75012;SDS011;63567;49.956;20.130;2023-05-07T13:12:20;5.10;;;4.07;;
75012;SDS011;63567;49.956;20.130;2023-05-07T13:14:45;5.43;;;4.40;;
75012;SDS011;63567;49.956;20.130;2023-05-07T13:17:11;6.63;;;4.90;;
75012;SDS011;63567;49.956;20.130;2023-05-07T13:19:36;7.20;;;4.97;;
75012;SDS011;63567;49.956;20.130;2023-05-07T13:22:02;5.35;;;4.47;;
75012;SDS011;63567;49.956;20.130;2023-05-07T13:24:28;7.80;;;5.15;;
75012;SDS011;63567;49.956;20.130;2023-05-07T13:26:53;5.38;;;3.75;;
75012;SDS011;63567;49.956;20.130;2023-05-07T13:29:19;6.18;;;4.00;;
75012;SDS011;63567;49.956;20.130;2023-05-07T13:31:46;5.57;;;4.20;;
75012;SDS011;63567;49.956;20.130;2023-05-07T13:34:11;5.70;;;3.97;;
75012;SDS011;63567;49.956;20.130;2023-05-07T13:36:36;6.90;;;4.17;;
75012;SDS011;63567;49.956;20.130;2023-05-07T13:39:04;7.28;;;5.35;;
75012;SDS011;63567;49.956;20.130;2023-05-07T13:41:31;5.82;;;5.03;;
75012;SDS011;63567;49.956;20.130;2023-05-07T13:43:56;7.07;;;5.30;;
75012;SDS011;63567;49.956;20.130;2023-05-07T13:46:21;7.47;;;4.93;;
75012;SDS011;63567;49.956;20.130;2023-05-07T13:48:47;6.10;;;4.75;;
75012;SDS011;63567;49.956;20.130;2023-05-07T13:51:12;6.03;;;4.87;;
75012;SDS011;63567;49.956;20.130;2023-05-07T13:53:37;6.45;;;5.13;;
75012;SDS011;63567;49.956;20.130;2023-05-07T13:56:03;6.53;;;4.80;;
75012;SDS011;63567;49.956;20.130;2023-05-07T13:58:29;6.38;;;4.80;;
75012;SDS011;63567;49.956;20.130;2023-05-07T14:00:55;7.18;;;5.07;;
75012;SDS011;63567;49.956;20.130;2023-05-07T14:03:20;6.47;;;5.07;;
75012;SDS011;63567;49.956;20.130;2023-05-07T14:05:45;6.43;;;4.97;;
75012;SDS011;63567;49.956;20.130;2023-05-07T14:08:11;8.07;;;5.63;;
75012;SDS011;63567;49.956;20.130;2023-05-07T14:10:39;8.15;;;5.82;;
75012;SDS011;63567;49.956;20.130;2023-05-07T14:13:04;6.47;;;4.60;;
75012;SDS011;63567;49.956;20.130;2023-05-07T14:15:30;7.95;;;5.53;;
75012;SDS011;63567;49.956;20.130;2023-05-07T14:17:57;7.65;;;5.38;;
75012;SDS011;63567;49.956;20.130;2023-05-07T14:20:24;7.70;;;5.97;;
75012;SDS011;63567;49.956;20.130;2023-05-07T14:22:49;7.50;;;5.30;;
75012;SDS011;63567;49.956;20.130;2023-05-07T14:25:15;6.78;;;5.10;;
75012;SDS011;63567;49.956;20.130;2023-05-07T14:27:40;6.88;;;4.63;;
75012;SDS011;63567;49.956;20.130;2023-05-07T14:30:06;5.60;;;4.50;;
75012;SDS011;63567;49.956;20.130;2023-05-07T14:32:32;5.75;;;4.28;;
75012;SDS011;63567;49.956;20.130;2023-05-07T14:34:58;6.03;;;4.45;;
75012;SDS011;63567;49.956;20.130;2023-05-07T14:37:23;7.43;;;4.60;;